sensor_id;sensor_type;location;lat;lon;timestamp;pressure;altitude;pressure_sealevel;temperature;humidity
11830;BME280;5972;42.134;24.718;2022-10-30T00:00:59;100380.63;;;11.31;100.00
11830;BME280;5972;42.134;24.718;2022-10-30T00:03:26;100394.78;;;11.36;100.00
11830;BME280;5972;42.134;24.718;2022-10-30T00:05:52;100396.34;;;11.37;100.00
11830;BME280;5972;42.134;24.718;2022-10-30T00:08:21;100391.41;;;11.39;99.94
11830;BME280;5972;42.134;24.718;2022-10-30T00:10:50;100391.47;;;11.31;100.00
11830;BME280;5972;42.134;24.718;2022-10-30T00:13:18;100376.53;;;11.24;100.00
11830;BME280;5972;42.134;24.718;2022-10-30T00:15:51;100385.78;;;11.23;100.00
11830;BME280;5972;42.134;24.718;2022-10-30T00:18:19;100389.31;;;11.15;100.00
11830;BME280;5972;42.134;24.718;2022-10-30T00:20:46;100386.97;;;11.05;100.00
11830;BME280;5972;42.134;24.718;2022-10-30T00:23:14;100379.44;;;11.11;100.00
11830;BME280;5972;42.134;24.718;2022-10-30T00:25:41;100376.28;;;11.09;100.00
11830;BME280;5972;42.134;24.718;2022-10-30T00:28:08;100376.44;;;11.04;100.00
11830;BME280;5972;42.134;24.718;2022-10-30T00:30:35;100370.41;;;11.07;100.00
11830;BME280;5972;42.134;24.718;2022-10-30T00:33:03;100359.25;;;11.08;100.00
11830;BME280;5972;42.134;24.718;2022-10-30T00:35:30;100369.59;;;11.06;100.00
11830;BME280;5972;42.134;24.718;2022-10-30T00:37:59;100362.22;;;11.15;100.00
11830;BME280;5972;42.134;24.718;2022-10-30T00:40:25;100352.38;;;11.11;100.00
11830;BME280;5972;42.134;24.718;2022-10-30T00:42:52;100351.38;;;11.15;100.00
11830;BME280;5972;42.134;24.718;2022-10-30T00:45:19;100349.47;;;11.16;100.00
11830;BME280;5972;42.134;24.718;2022-10-30T00:47:51;100347.88;;;11.15;100.00
11830;BME280;5972;42.134;24.718;2022-10-30T00:50:24;100344.72;;;11.13;100.00
11830;BME280;5972;42.134;24.718;2022-10-30T00:52:56;100348.41;;;11.08;100.00
11830;BME280;5972;42.134;24.718;2022-10-30T00:55:26;100342.09;;;10.96;100.00
11830;BME280;5972;42.134;24.718;2022-10-30T00:57:57;100355.31;;;10.97;100.00
11830;BME280;5972;42.134;24.718;2022-10-30T01:00:26;100344.38;;;10.85;100.00
11830;BME280;5972;42.134;24.718;2022-10-30T01:02:54;100351.03;;;10.88;100.00
11830;BME280;5972;42.134;24.718;2022-10-30T01:05:26;100351.69;;;10.84;100.00
11830;BME280;5972;42.134;24.718;2022-10-30T01:07:53;100343.16;;;10.74;100.00
11830;BME280;5972;42.134;24.718;2022-10-30T01:10:21;100337.91;;;10.69;100.00
11830;BME280;5972;42.134;24.718;2022-10-30T01:12:48;100342.53;;;10.60;100.00
11830;BME280;5972;42.134;24.718;2022-10-30T01:15:18;100346.09;;;10.52;100.00
11830;BME280;5972;42.134;24.718;2022-10-30T01:18:05;100344.53;;;10.42;100.00
11830;BME280;5972;42.134;24.718;2022-10-30T01:20:51;100342.31;;;10.27;100.00
11830;BME280;5972;42.134;24.718;2022-10-30T01:23:32;100319.72;;;10.06;100.00
11830;BME280;5972;42.134;24.718;2022-10-30T01:26:10;100347.41;;;10.11;100.00
11830;BME280;5972;42.134;24.718;2022-10-30T01:28:52;100337.56;;;10.07;100.00
11830;BME280;5972;42.134;24.718;2022-10-30T01:31:33;100335.19;;;9.96;100.00
11830;BME280;5972;42.134;24.718;2022-10-30T01:34:14;100341.38;;;9.97;100.00
11830;BME280;5972;42.134;24.718;2022-10-30T01:36:48;100333.59;;;9.95;100.00
11830;BME280;5972;42.134;24.718;2022-10-30T01:39:18;100339.63;;;9.92;100.00
11830;BME280;5972;42.134;24.718;2022-10-30T01:41:46;100336.44;;;9.82;100.00
11830;BME280;5972;42.134;24.718;2022-10-30T01:44:17;100313.72;;;9.66;100.00
11830;BME280;5972;42.134;24.718;2022-10-30T01:46:55;100315.94;;;9.81;100.00
11830;BME280;5972;42.134;24.718;2022-10-30T01:49:57;100332.00;;;9.94;100.00
11830;BME280;5972;42.134;24.718;2022-10-30T01:52:35;100327.69;;;9.93;100.00
11830;BME280;5972;42.134;24.718;2022-10-30T01:55:14;100322.44;;;10.06;100.00
11830;BME280;5972;42.134;24.718;2022-10-30T01:57:50;100312.59;;;10.01;100.00
11830;BME280;5972;42.134;24.718;2022-10-30T02:00:21;100310.66;;;10.10;100.00
11830;BME280;5972;42.134;24.718;2022-10-30T02:02:48;100308.59;;;10.07;100.00
11830;BME280;5972;42.134;24.718;2022-10-30T02:05:20;100282.38;;;9.99;100.00
11830;BME280;5972;42.134;24.718;2022-10-30T02:07:53;100305.41;;;10.14;100.00
11830;BME280;5972;42.134;24.718;2022-10-30T02:10:19;100286.34;;;10.01;100.00
11830;BME280;5972;42.134;24.718;2022-10-30T02:12:46;100292.22;;;10.03;100.00
11830;BME280;5972;42.134;24.718;2022-10-30T02:15:14;100283.78;;;10.14;100.00
11830;BME280;5972;42.134;24.718;2022-10-30T02:17:41;100281.06;;;10.22;100.00
11830;BME280;5972;42.134;24.718;2022-10-30T02:20:14;100283.63;;;10.10;100.00
11830;BME280;5972;42.134;24.718;2022-10-30T02:22:44;100297.63;;;10.12;100.00
11830;BME280;5972;42.134;24.718;2022-10-30T02:25:11;100294.44;;;10.10;100.00
11830;BME280;5972;42.134;24.718;2022-10-30T02:27:38;100292.38;;;10.07;100.00
11830;BME280;5972;42.134;24.718;2022-10-30T02:30:06;100286.00;;;10.03;100.00
11830;BME280;5972;42.134;24.718;2022-10-30T02:32:33;100284.59;;;10.06;100.00
11830;BME280;5972;42.134;24.718;2022-10-30T02:35:00;100289.19;;;10.05;100.00
11830;BME280;5972;42.134;24.718;2022-10-30T02:37:28;100281.91;;;9.97;100.00
11830;BME280;5972;42.134;24.718;2022-10-30T02:39:56;100276.31;;;9.93;100.00
11830;BME280;5972;42.134;24.718;2022-10-30T02:42:23;100246.16;;;9.74;100.00
11830;BME280;5972;42.134;24.718;2022-10-30T02:44:50;100284.44;;;9.93;100.00
11830;BME280;5972;42.134;24.718;2022-10-30T02:47:17;100288.91;;;9.89;100.00
11830;BME280;5972;42.134;24.718;2022-10-30T02:49:43;100274.94;;;9.79;100.00
11830;BME280;5972;42.134;24.718;2022-10-30T02:52:10;100275.72;;;9.79;100.00
11830;BME280;5972;42.134;24.718;2022-10-30T02:54:38;100286.84;;;9.78;100.00
11830;BME280;5972;42.134;24.718;2022-10-30T02:57:05;100287.34;;;9.80;100.00
11830;BME280;5972;42.134;24.718;2022-10-30T02:59:32;100285.09;;;9.82;100.00
11830;BME280;5972;42.134;24.718;2022-10-30T03:02:00;100266.19;;;9.65;100.00
11830;BME280;5972;42.134;24.718;2022-10-30T03:04:26;100290.97;;;9.84;100.00
11830;BME280;5972;42.134;24.718;2022-10-30T03:06:53;100290.19;;;9.83;100.00
11830;BME280;5972;42.134;24.718;2022-10-30T03:09:20;100300.84;;;9.80;100.00
11830;BME280;5972;42.134;24.718;2022-10-30T03:11:48;100303.88;;;9.78;100.00
11830;BME280;5972;42.134;24.718;2022-10-30T03:14:15;100296.69;;;9.82;100.00
11830;BME280;5972;42.134;24.718;2022-10-30T03:16:42;100278.75;;;9.78;100.00
11830;BME280;5972;42.134;24.718;2022-10-30T03:19:09;100273.81;;;9.71;100.00
11830;BME280;5972;42.134;24.718;2022-10-30T03:21:35;100284.00;;;9.74;100.00
11830;BME280;5972;42.134;24.718;2022-10-30T03:24:03;100282.72;;;9.72;100.00
11830;BME280;5972;42.134;24.718;2022-10-30T03:26:29;100282.88;;;9.67;100.00
11830;BME280;5972;42.134;24.718;2022-10-30T03:28:58;100286.53;;;9.62;100.00
11830;BME280;5972;42.134;24.718;2022-10-30T03:31:24;100293.84;;;9.53;100.00
11830;BME280;5972;42.134;24.718;2022-10-30T03:33:51;100292.75;;;9.45;100.00
11830;BME280;5972;42.134;24.718;2022-10-30T03:36:18;100291.00;;;9.41;100.00
11830;BME280;5972;42.134;24.718;2022-10-30T03:38:45;100275.72;;;9.28;100.00
11830;BME280;5972;42.134;24.718;2022-10-30T03:41:12;100282.88;;;9.32;100.00
11830;BME280;5972;42.134;24.718;2022-10-30T03:43:38;100287.00;;;9.38;100.00
11830;BME280;5972;42.134;24.718;2022-10-30T03:46:08;100286.84;;;9.35;100.00
11830;BME280;5972;42.134;24.718;2022-10-30T03:48:35;100289.09;;;9.41;100.00
11830;BME280;5972;42.134;24.718;2022-10-30T03:51:02;100291.16;;;9.36;100.00
11830;BME280;5972;42.134;24.718;2022-10-30T03:53:29;100293.50;;;9.37;100.00
11830;BME280;5972;42.134;24.718;2022-10-30T03:55:58;100297.19;;;9.41;100.00
11830;BME280;5972;42.134;24.718;2022-10-30T03:58:25;100296.41;;;9.41;100.00
11830;BME280;5972;42.134;24.718;2022-10-30T04:00:52;100299.72;;;9.38;100.00
11830;BME280;5972;42.134;24.718;2022-10-30T04:03:20;100303.06;;;9.35;100.00
11830;BME280;5972;42.134;24.718;2022-10-30T04:05:47;100306.06;;;9.33;100.00
11830;BME280;5972;42.134;24.718;2022-10-30T04:08:16;100307.81;;;9.38;100.00
11830;BME280;5972;42.134;24.718;2022-10-30T04:10:43;100281.28;;;9.23;100.00
11830;BME280;5972;42.134;24.718;2022-10-30T04:13:12;100303.53;;;9.28;100.00
11830;BME280;5972;42.134;24.718;2022-10-30T04:15:40;100283.63;;;9.15;100.00
11830;BME280;5972;42.134;24.718;2022-10-30T04:18:09;100294.75;;;9.14;100.00
11830;BME280;5972;42.134;24.718;2022-10-30T04:20:38;100295.19;;;8.99;100.00
11830;BME280;5972;42.134;24.718;2022-10-30T04:23:07;100298.69;;;8.91;100.00
11830;BME280;5972;42.134;24.718;2022-10-30T04:25:34;100295.47;;;8.80;100.00
11830;BME280;5972;42.134;24.718;2022-10-30T04:28:02;100306.44;;;8.84;100.00
11830;BME280;5972;42.134;24.718;2022-10-30T04:30:29;100308.63;;;8.82;100.00
11830;BME280;5972;42.134;24.718;2022-10-30T04:33:00;100306.59;;;8.87;100.00
11830;BME280;5972;42.134;24.718;2022-10-30T04:35:28;100295.63;;;8.84;100.00
11830;BME280;5972;42.134;24.718;2022-10-30T04:37:58;100286.59;;;8.80;100.00
11830;BME280;5972;42.134;24.718;2022-10-30T04:40:27;100302.78;;;8.88;100.00
11830;BME280;5972;42.134;24.718;2022-10-30T04:42:55;100304.19;;;8.77;100.00
11830;BME280;5972;42.134;24.718;2022-10-30T04:45:22;100298.19;;;8.80;100.00
11830;BME280;5972;42.134;24.718;2022-10-30T04:47:49;100313.44;;;8.93;100.00
11830;BME280;5972;42.134;24.718;2022-10-30T04:50:16;100316.97;;;9.02;100.00
11830;BME280;5972;42.134;24.718;2022-10-30T04:52:43;100310.63;;;9.07;100.00
11830;BME280;5972;42.134;24.718;2022-10-30T04:55:11;100315.53;;;9.05;100.00
11830;BME280;5972;42.134;24.718;2022-10-30T04:57:38;100312.34;;;9.03;100.00
11830;BME280;5972;42.134;24.718;2022-10-30T05:00:07;100266.09;;;8.79;100.00
11830;BME280;5972;42.134;24.718;2022-10-30T05:02:34;100312.22;;;9.08;100.00
11830;BME280;5972;42.134;24.718;2022-10-30T05:05:01;100291.69;;;8.98;100.00
11830;BME280;5972;42.134;24.718;2022-10-30T05:07:28;100310.81;;;9.28;100.00
11830;BME280;5972;42.134;24.718;2022-10-30T05:09:55;100314.63;;;9.27;100.00
11830;BME280;5972;42.134;24.718;2022-10-30T05:12:23;100318.31;;;9.48;100.00
11830;BME280;5972;42.134;24.718;2022-10-30T05:14:50;100305.59;;;9.66;100.00
11830;BME280;5972;42.134;24.718;2022-10-30T05:17:16;100293.38;;;9.68;100.00
11830;BME280;5972;42.134;24.718;2022-10-30T05:19:43;100298.91;;;9.97;100.00
11830;BME280;5972;42.134;24.718;2022-10-30T05:22:10;100304.75;;;10.34;100.00
11830;BME280;5972;42.134;24.718;2022-10-30T05:24:37;100300.53;;;10.62;100.00
11830;BME280;5972;42.134;24.718;2022-10-30T05:27:04;100301.84;;;10.86;100.00
11830;BME280;5972;42.134;24.718;2022-10-30T05:29:33;100300.59;;;11.12;100.00
11830;BME280;5972;42.134;24.718;2022-10-30T05:31:59;100298.38;;;11.35;100.00
11830;BME280;5972;42.134;24.718;2022-10-30T05:34:26;100297.56;;;11.55;100.00
11830;BME280;5972;42.134;24.718;2022-10-30T05:36:53;100303.47;;;11.78;100.00
11830;BME280;5972;42.134;24.718;2022-10-30T05:39:20;100307.09;;;11.82;98.12
11830;BME280;5972;42.134;24.718;2022-10-30T05:41:47;100312.75;;;12.10;95.82
11830;BME280;5972;42.134;24.718;2022-10-30T05:44:13;100318.81;;;12.40;92.25
11830;BME280;5972;42.134;24.718;2022-10-30T05:46:42;100321.69;;;12.68;88.48
11830;BME280;5972;42.134;24.718;2022-10-30T05:49:09;100307.34;;;13.04;85.92
11830;BME280;5972;42.134;24.718;2022-10-30T05:51:35;100305.41;;;13.16;82.73
11830;BME280;5972;42.134;24.718;2022-10-30T05:54:02;100316.34;;;13.44;81.08
11830;BME280;5972;42.134;24.718;2022-10-30T05:56:29;100289.66;;;13.22;79.23
11830;BME280;5972;42.134;24.718;2022-10-30T05:58:56;100322.59;;;13.45;78.83
11830;BME280;5972;42.134;24.718;2022-10-30T06:01:23;100322.41;;;13.25;81.00
11830;BME280;5972;42.134;24.718;2022-10-30T06:03:51;100322.38;;;13.01;83.59
11830;BME280;5972;42.134;24.718;2022-10-30T06:06:18;100331.09;;;12.82;85.73
11830;BME280;5972;42.134;24.718;2022-10-30T06:08:45;100305.72;;;12.42;89.01
11830;BME280;5972;42.134;24.718;2022-10-30T06:11:12;100322.03;;;12.21;94.08
11830;BME280;5972;42.134;24.718;2022-10-30T06:13:39;100312.50;;;12.03;97.04
11830;BME280;5972;42.134;24.718;2022-10-30T06:16:06;100300.13;;;11.73;99.82
11830;BME280;5972;42.134;24.718;2022-10-30T06:18:33;100315.53;;;12.01;99.78
11830;BME280;5972;42.134;24.718;2022-10-30T06:21:01;100298.09;;;11.90;100.00
11830;BME280;5972;42.134;24.718;2022-10-30T06:23:28;100316.78;;;12.04;100.00
11830;BME280;5972;42.134;24.718;2022-10-30T06:25:55;100317.13;;;12.02;99.06
11830;BME280;5972;42.134;24.718;2022-10-30T06:28:22;100320.50;;;11.99;98.88
11830;BME280;5972;42.134;24.718;2022-10-30T06:30:48;100321.94;;;12.18;98.38
11830;BME280;5972;42.134;24.718;2022-10-30T06:33:15;100309.06;;;12.27;96.11
11830;BME280;5972;42.134;24.718;2022-10-30T06:35:42;100309.13;;;12.63;92.07
11830;BME280;5972;42.134;24.718;2022-10-30T06:38:10;100302.13;;;12.99;87.47
11830;BME280;5972;42.134;24.718;2022-10-30T06:40:37;100305.69;;;13.51;79.90
11830;BME280;5972;42.134;24.718;2022-10-30T06:43:04;100303.00;;;14.50;73.91
11830;BME280;5972;42.134;24.718;2022-10-30T06:45:31;100306.69;;;16.17;60.34
11830;BME280;5972;42.134;24.718;2022-10-30T06:47:58;100301.13;;;17.57;51.88
11830;BME280;5972;42.134;24.718;2022-10-30T06:50:25;100296.66;;;18.86;46.83
11830;BME280;5972;42.134;24.718;2022-10-30T06:52:52;100290.81;;;19.49;44.75
11830;BME280;5972;42.134;24.718;2022-10-30T06:55:21;100286.00;;;20.93;40.37
11830;BME280;5972;42.134;24.718;2022-10-30T06:57:52;100287.31;;;21.90;38.02
11830;BME280;5972;42.134;24.718;2022-10-30T07:00:19;100288.78;;;22.67;36.22
11830;BME280;5972;42.134;24.718;2022-10-30T07:02:54;100293.69;;;23.35;34.84
11830;BME280;5972;42.134;24.718;2022-10-30T07:05:21;100300.06;;;23.96;33.56
11830;BME280;5972;42.134;24.718;2022-10-30T07:07:48;100297.91;;;24.37;32.90
11830;BME280;5972;42.134;24.718;2022-10-30T07:10:15;100293.00;;;24.72;32.28
11830;BME280;5972;42.134;24.718;2022-10-30T07:12:50;100283.31;;;24.83;31.98
11830;BME280;5972;42.134;24.718;2022-10-30T07:15:17;100287.13;;;25.16;31.88
11830;BME280;5972;42.134;24.718;2022-10-30T07:17:51;100282.38;;;25.96;30.46
11830;BME280;5972;42.134;24.718;2022-10-30T07:20:18;100284.38;;;26.12;30.25
11830;BME280;5972;42.134;24.718;2022-10-30T07:22:44;100291.03;;;25.39;30.91
11830;BME280;5972;42.134;24.718;2022-10-30T07:25:11;100288.41;;;25.51;30.75
11830;BME280;5972;42.134;24.718;2022-10-30T07:27:42;100279.81;;;25.46;31.06
11830;BME280;5972;42.134;24.718;2022-10-30T07:30:10;100274.28;;;25.03;31.67
11830;BME280;5972;42.134;24.718;2022-10-30T07:32:37;100271.44;;;25.49;30.88
11830;BME280;5972;42.134;24.718;2022-10-30T07:35:05;100273.16;;;25.99;30.45
11830;BME280;5972;42.134;24.718;2022-10-30T07:37:32;100269.19;;;26.52;29.83
11830;BME280;5972;42.134;24.718;2022-10-30T07:39:59;100270.00;;;27.14;29.10
11830;BME280;5972;42.134;24.718;2022-10-30T07:42:25;100269.91;;;27.17;28.37
11830;BME280;5972;42.134;24.718;2022-10-30T07:44:54;100256.19;;;27.68;28.43
11830;BME280;5972;42.134;24.718;2022-10-30T07:47:20;100255.19;;;28.50;27.47
11830;BME280;5972;42.134;24.718;2022-10-30T07:49:47;100244.00;;;28.76;26.97
11830;BME280;5972;42.134;24.718;2022-10-30T07:52:14;100255.13;;;29.45;26.13
11830;BME280;5972;42.134;24.718;2022-10-30T07:54:41;100245.84;;;30.00;25.48
11830;BME280;5972;42.134;24.718;2022-10-30T07:57:08;100249.78;;;30.21;25.31
11830;BME280;5972;42.134;24.718;2022-10-30T07:59:35;100239.34;;;29.29;25.81
11830;BME280;5972;42.134;24.718;2022-10-30T08:02:03;100242.03;;;29.32;26.42
11830;BME280;5972;42.134;24.718;2022-10-30T08:04:30;100235.44;;;29.26;26.04
11830;BME280;5972;42.134;24.718;2022-10-30T08:06:57;100231.66;;;28.99;26.57
11830;BME280;5972;42.134;24.718;2022-10-30T08:09:24;100232.66;;;29.05;26.59
11830;BME280;5972;42.134;24.718;2022-10-30T08:11:51;100235.00;;;29.50;26.15
11830;BME280;5972;42.134;24.718;2022-10-30T08:14:18;100222.44;;;29.45;26.40
11830;BME280;5972;42.134;24.718;2022-10-30T08:16:45;100227.06;;;30.01;25.60
11830;BME280;5972;42.134;24.718;2022-10-30T08:19:13;100218.25;;;30.02;25.70
11830;BME280;5972;42.134;24.718;2022-10-30T08:21:40;100211.19;;;30.29;25.42
11830;BME280;5972;42.134;24.718;2022-10-30T08:24:07;100211.09;;;30.60;25.04
11830;BME280;5972;42.134;24.718;2022-10-30T08:26:34;100203.22;;;30.67;24.91
11830;BME280;5972;42.134;24.718;2022-10-30T08:29:01;100185.41;;;30.15;25.04
11830;BME280;5972;42.134;24.718;2022-10-30T08:31:28;100201.69;;;29.77;25.70
11830;BME280;5972;42.134;24.718;2022-10-30T08:33:55;100195.03;;;31.60;24.33
11830;BME280;5972;42.134;24.718;2022-10-30T08:36:23;100208.31;;;31.93;23.88
11830;BME280;5972;42.134;24.718;2022-10-30T08:38:50;100200.59;;;31.78;23.88
11830;BME280;5972;42.134;24.718;2022-10-30T08:41:16;100200.88;;;30.84;24.70
11830;BME280;5972;42.134;24.718;2022-10-30T08:43:43;100198.75;;;30.21;24.86
11830;BME280;5972;42.134;24.718;2022-10-30T08:46:10;100199.31;;;31.37;24.09
11830;BME280;5972;42.134;24.718;2022-10-30T08:48:37;100197.97;;;31.66;24.37
11830;BME280;5972;42.134;24.718;2022-10-30T08:51:04;100197.25;;;32.31;22.97
11830;BME280;5972;42.134;24.718;2022-10-30T08:53:32;100195.13;;;32.65;23.03
11830;BME280;5972;42.134;24.718;2022-10-30T08:55:59;100197.56;;;31.40;23.96
11830;BME280;5972;42.134;24.718;2022-10-30T08:58:26;100188.75;;;32.40;23.19
11830;BME280;5972;42.134;24.718;2022-10-30T09:00:53;100144.78;;;33.09;21.98
11830;BME280;5972;42.134;24.718;2022-10-30T09:03:20;100181.66;;;33.95;21.93
11830;BME280;5972;42.134;24.718;2022-10-30T09:05:46;100175.72;;;33.14;22.23
11830;BME280;5972;42.134;24.718;2022-10-30T09:08:13;100177.13;;;32.95;22.39
11830;BME280;5972;42.134;24.718;2022-10-30T09:10:41;100170.22;;;32.67;22.94
11830;BME280;5972;42.134;24.718;2022-10-30T09:13:08;100177.19;;;33.24;22.53
11830;BME280;5972;42.134;24.718;2022-10-30T09:15:35;100166.66;;;33.19;21.63
11830;BME280;5972;42.134;24.718;2022-10-30T09:18:03;100168.09;;;33.15;21.80
11830;BME280;5972;42.134;24.718;2022-10-30T09:20:30;100156.78;;;32.32;22.81
11830;BME280;5972;42.134;24.718;2022-10-30T09:22:57;100158.91;;;32.37;22.74
11830;BME280;5972;42.134;24.718;2022-10-30T09:25:24;100152.75;;;32.72;22.24
11830;BME280;5972;42.134;24.718;2022-10-30T09:27:53;100144.63;;;32.74;21.97
11830;BME280;5972;42.134;24.718;2022-10-30T09:30:20;100131.97;;;32.78;21.97
11830;BME280;5972;42.134;24.718;2022-10-30T09:32:53;100136.06;;;33.07;22.09
11830;BME280;5972;42.134;24.718;2022-10-30T09:35:20;100124.19;;;33.26;21.17
11830;BME280;5972;42.134;24.718;2022-10-30T09:37:47;100119.72;;;33.84;20.94
11830;BME280;5972;42.134;24.718;2022-10-30T09:40:20;100115.41;;;34.03;20.70
11830;BME280;5972;42.134;24.718;2022-10-30T09:42:50;100121.91;;;33.74;20.71
11830;BME280;5972;42.134;24.718;2022-10-30T09:45:51;100102.94;;;33.69;20.47
11830;BME280;5972;42.134;24.718;2022-10-30T09:48:41;100106.38;;;33.79;20.47
11830;BME280;5972;42.134;24.718;2022-10-30T09:51:26;100108.84;;;33.57;20.88
11830;BME280;5972;42.134;24.718;2022-10-30T09:54:03;100094.41;;;33.99;19.71
11830;BME280;5972;42.134;24.718;2022-10-30T09:56:38;100096.09;;;33.91;20.24
11830;BME280;5972;42.134;24.718;2022-10-30T09:59:19;100101.16;;;33.87;20.07
11830;BME280;5972;42.134;24.718;2022-10-30T10:01:54;100094.09;;;34.32;19.43
11830;BME280;5972;42.134;24.718;2022-10-30T10:04:25;100084.13;;;34.56;19.79
11830;BME280;5972;42.134;24.718;2022-10-30T10:06:56;100084.28;;;34.47;19.49
11830;BME280;5972;42.134;24.718;2022-10-30T10:09:29;100086.44;;;34.58;19.32
11830;BME280;5972;42.134;24.718;2022-10-30T10:11:59;100082.13;;;34.37;19.64
11830;BME280;5972;42.134;24.718;2022-10-30T10:14:29;100062.47;;;34.62;19.51
11830;BME280;5972;42.134;24.718;2022-10-30T10:17:01;100081.72;;;35.58;18.64
11830;BME280;5972;42.134;24.718;2022-10-30T10:19:32;100076.06;;;33.83;19.19
11830;BME280;5972;42.134;24.718;2022-10-30T10:22:02;100064.72;;;33.92;19.95
11830;BME280;5972;42.134;24.718;2022-10-30T10:24:34;100072.44;;;33.77;20.02
11830;BME280;5972;42.134;24.718;2022-10-30T10:27:08;100042.94;;;34.28;19.65
11830;BME280;5972;42.134;24.718;2022-10-30T10:29:43;100054.31;;;34.90;19.08
11830;BME280;5972;42.134;24.718;2022-10-30T10:35:23;100033.09;;;34.63;19.35
11830;BME280;5972;42.134;24.718;2022-10-30T10:38:01;100024.22;;;34.96;18.85
11830;BME280;5972;42.134;24.718;2022-10-30T10:40:39;100030.16;;;35.04;18.61
11830;BME280;5972;42.134;24.718;2022-10-30T10:43:24;100020.22;;;35.09;18.85
11830;BME280;5972;42.134;24.718;2022-10-30T10:45:58;100021.56;;;34.61;19.29
11830;BME280;5972;42.134;24.718;2022-10-30T10:48:49;100012.09;;;33.87;19.70
11830;BME280;5972;42.134;24.718;2022-10-30T10:51:22;100009.28;;;32.29;20.99
11830;BME280;5972;42.134;24.718;2022-10-30T10:53:53;100007.06;;;31.95;21.69
11830;BME280;5972;42.134;24.718;2022-10-30T10:56:25;99996.63;;;30.73;22.37
11830;BME280;5972;42.134;24.718;2022-10-30T10:58:55;99988.78;;;30.26;22.91
11830;BME280;5972;42.134;24.718;2022-10-30T11:01:28;99990.75;;;29.80;23.26
11830;BME280;5972;42.134;24.718;2022-10-30T11:04:03;99971.53;;;29.82;22.92
11830;BME280;5972;42.134;24.718;2022-10-30T11:06:31;99973.88;;;29.83;23.80
11830;BME280;5972;42.134;24.718;2022-10-30T11:09:11;99979.66;;;29.30;23.64
11830;BME280;5972;42.134;24.718;2022-10-30T11:11:40;99984.25;;;29.64;23.62
11830;BME280;5972;42.134;24.718;2022-10-30T11:14:13;99973.13;;;29.92;23.31
11830;BME280;5972;42.134;24.718;2022-10-30T11:16:51;99970.41;;;28.72;24.48
11830;BME280;5972;42.134;24.718;2022-10-30T11:19:21;99957.69;;;28.71;24.25
11830;BME280;5972;42.134;24.718;2022-10-30T11:21:51;99964.09;;;28.49;24.65
11830;BME280;5972;42.134;24.718;2022-10-30T11:24:27;99963.47;;;28.24;24.76
11830;BME280;5972;42.134;24.718;2022-10-30T11:26:56;99949.34;;;28.40;25.10
11830;BME280;5972;42.134;24.718;2022-10-30T11:29:26;99952.34;;;28.76;24.57
11830;BME280;5972;42.134;24.718;2022-10-30T11:31:59;99951.44;;;28.79;23.80
11830;BME280;5972;42.134;24.718;2022-10-30T11:34:35;99935.94;;;29.18;23.79
11830;BME280;5972;42.134;24.718;2022-10-30T11:37:06;99930.91;;;29.35;23.89
11830;BME280;5972;42.134;24.718;2022-10-30T11:40:01;99915.28;;;29.47;23.91
11830;BME280;5972;42.134;24.718;2022-10-30T11:42:29;99920.25;;;29.70;23.17
11830;BME280;5972;42.134;24.718;2022-10-30T11:44:57;99926.44;;;29.83;23.43
11830;BME280;5972;42.134;24.718;2022-10-30T11:47:28;99918.84;;;29.65;23.79
11830;BME280;5972;42.134;24.718;2022-10-30T11:50:00;99916.84;;;29.75;23.26
11830;BME280;5972;42.134;24.718;2022-10-30T11:52:28;99921.31;;;29.54;23.57
11830;BME280;5972;42.134;24.718;2022-10-30T11:55:07;99909.16;;;29.21;24.29
11830;BME280;5972;42.134;24.718;2022-10-30T11:57:37;99916.19;;;28.85;23.93
11830;BME280;5972;42.134;24.718;2022-10-30T12:00:14;99912.28;;;27.87;24.15
11830;BME280;5972;42.134;24.718;2022-10-30T12:02:42;99907.75;;;28.36;24.23
11830;BME280;5972;42.134;24.718;2022-10-30T12:05:32;99901.94;;;28.52;24.47
11830;BME280;5972;42.134;24.718;2022-10-30T12:08:17;99895.16;;;28.32;24.69
11830;BME280;5972;42.134;24.718;2022-10-30T12:10:46;99866.66;;;28.49;24.06
11830;BME280;5972;42.134;24.718;2022-10-30T12:13:21;99895.84;;;28.76;23.59
11830;BME280;5972;42.134;24.718;2022-10-30T12:15:50;99880.97;;;28.70;24.01
11830;BME280;5972;42.134;24.718;2022-10-30T12:18:29;99863.84;;;28.40;24.42
11830;BME280;5972;42.134;24.718;2022-10-30T12:20:58;99886.78;;;28.84;23.48
11830;BME280;5972;42.134;24.718;2022-10-30T12:23:27;99887.44;;;28.67;23.44
11830;BME280;5972;42.134;24.718;2022-10-30T12:25:56;99885.66;;;28.82;23.30
11830;BME280;5972;42.134;24.718;2022-10-30T12:28:25;99870.22;;;28.90;23.87
11830;BME280;5972;42.134;24.718;2022-10-30T12:30:56;99877.25;;;29.13;23.49
11830;BME280;5972;42.134;24.718;2022-10-30T12:33:30;99877.41;;;29.18;22.80
11830;BME280;5972;42.134;24.718;2022-10-30T12:36:05;99856.34;;;29.26;23.02
11830;BME280;5972;42.134;24.718;2022-10-30T12:38:35;99877.66;;;29.42;23.06
11830;BME280;5972;42.134;24.718;2022-10-30T12:41:09;99873.59;;;29.43;22.52
11830;BME280;5972;42.134;24.718;2022-10-30T12:43:38;99872.50;;;29.50;23.12
11830;BME280;5972;42.134;24.718;2022-10-30T12:46:16;99870.03;;;29.43;23.28
11830;BME280;5972;42.134;24.718;2022-10-30T12:48:50;99866.94;;;29.50;22.64
11830;BME280;5972;42.134;24.718;2022-10-30T12:51:26;99859.97;;;29.54;22.65
11830;BME280;5972;42.134;24.718;2022-10-30T12:54:02;99867.72;;;29.50;22.69
11830;BME280;5972;42.134;24.718;2022-10-30T12:56:37;99867.72;;;29.41;23.27
11830;BME280;5972;42.134;24.718;2022-10-30T12:59:29;99864.78;;;29.45;22.66
11830;BME280;5972;42.134;24.718;2022-10-30T13:02:07;99860.25;;;29.29;22.49
11830;BME280;5972;42.134;24.718;2022-10-30T13:04:40;99850.16;;;29.13;22.86
11830;BME280;5972;42.134;24.718;2022-10-30T13:07:15;99836.84;;;29.08;23.03